createdAt,value
2022-11-20T00:00:35.158Z,60.03
2022-11-20T00:01:35.016Z,60.03
2022-11-20T00:02:35.179Z,60.03
2022-11-20T00:03:35.195Z,60.03
2022-11-20T00:04:35.214Z,59.75
2022-11-20T00:05:35.249Z,59.84
2022-11-20T00:06:35.243Z,59.75
2022-11-20T00:07:35.350Z,60.03
2022-11-20T00:08:35.010Z,60.32
2022-11-20T00:09:35.019Z,59.66
2022-11-20T00:10:35.290Z,59.94
2022-11-20T00:11:35.300Z,60.03
2022-11-20T00:12:35.329Z,59.47
2022-11-20T00:13:35.332Z,59.84
2022-11-20T00:14:35.348Z,59.56
2022-11-20T00:15:35.102Z,59.75
2022-11-20T00:16:35.380Z,60.03
2022-11-20T00:17:35.406Z,59.94
2022-11-20T00:18:35.395Z,60.03
2022-11-20T00:19:35.413Z,59.75
2022-11-20T00:20:35.170Z,59.66
2022-11-20T00:21:35.463Z,60.22
2022-11-20T00:22:35.454Z,59.75
2022-11-20T00:23:35.457Z,59.56
2022-11-20T00:24:38.890Z,59.75
2022-11-20T00:25:35.491Z,60.13
2022-11-20T00:26:35.507Z,59.84
2022-11-20T00:27:35.524Z,60.22
2022-11-20T00:28:35.533Z,59.84
2022-11-20T00:29:35.551Z,60.03
2022-11-20T00:30:35.559Z,59.94
2022-11-20T00:31:35.571Z,60.03
2022-11-20T00:32:35.586Z,59.75
2022-11-20T00:33:35.370Z,59.94
2022-11-20T00:34:35.616Z,60.22
2022-11-20T00:35:35.638Z,59.94
2022-11-20T00:36:35.385Z,60.22
2022-11-20T00:37:35.674Z,60.32
2022-11-20T00:38:35.408Z,60.32
2022-11-20T00:39:35.672Z,60.03
2022-11-20T00:40:35.434Z,60.13
2022-11-20T00:41:35.452Z,59.75
2022-11-20T00:42:35.726Z,60.03
2022-11-20T00:43:35.733Z,60.03
2022-11-20T00:44:35.748Z,60.03
2022-11-20T00:45:35.494Z,60.03
2022-11-20T00:46:35.516Z,59.94
2022-11-20T00:47:35.785Z,59.94
2022-11-20T00:48:35.806Z,59.94
2022-11-20T00:49:35.846Z,60.41
2022-11-20T00:50:35.571Z,60.22
2022-11-20T00:51:36.193Z,60.41
2022-11-20T00:52:35.854Z,60.41
2022-11-20T00:53:35.887Z,60.22
2022-11-20T00:54:35.885Z,60.41
2022-11-20T00:55:35.894Z,60.22
2022-11-20T00:56:35.912Z,60.03
2022-11-20T00:57:35.664Z,60.22
2022-11-20T00:58:35.934Z,60.03
2022-11-20T00:59:35.948Z,60.03
2022-11-20T01:00:35.964Z,60.03
2022-11-20T01:01:36.150Z,60.03
2022-11-20T01:02:35.984Z,60.03
2022-11-20T01:03:35.998Z,60.41
2022-11-20T01:04:36.012Z,60.41
2022-11-20T01:05:35.789Z,60.41
2022-11-20T01:06:35.782Z,60.22
2022-11-20T01:07:36.151Z,59.94
2022-11-20T01:08:36.062Z,60.41
2022-11-20T01:09:36.112Z,60.22
2022-11-20T01:10:36.090Z,60.22
2022-11-20T01:11:36.110Z,60.22
2022-11-20T01:12:36.119Z,60.22
2022-11-20T01:13:35.874Z,60.13
2022-11-20T01:14:36.141Z,60.03
2022-11-20T01:15:36.160Z,59.84
2022-11-20T01:16:36.176Z,60.22
2022-11-20T01:17:36.183Z,60.13
2022-11-20T01:18:35.939Z,60.22
2022-11-20T01:19:36.210Z,60.13
2022-11-20T01:20:36.229Z,60.13
2022-11-20T01:21:35.987Z,60.22
2022-11-20T01:22:36.001Z,60.41
2022-11-20T01:23:36.349Z,60.41
2022-11-20T01:24:36.280Z,60.13
2022-11-20T01:25:36.293Z,60.22
2022-11-20T01:26:36.042Z,60.22
2022-11-20T01:27:36.322Z,60.41
2022-11-20T01:28:36.335Z,60.32
2022-11-20T01:29:36.346Z,60.13
2022-11-20T01:30:36.384Z,59.84
2022-11-20T01:31:36.368Z,59.75
2022-11-20T01:32:36.383Z,59.75
2022-11-20T01:33:36.398Z,60.13
2022-11-20T01:34:36.415Z,59.75
2022-11-20T01:35:36.169Z,59.75
2022-11-20T01:36:36.433Z,60.13
2022-11-20T01:37:36.457Z,60.13
2022-11-20T01:38:36.465Z,59.75
2022-11-20T01:39:36.481Z,59.75
2022-11-20T01:40:36.236Z,60.03
2022-11-20T01:41:36.515Z,59.66
2022-11-20T01:42:36.512Z,59.94
2022-11-20T01:43:36.528Z,60.13
2022-11-20T01:44:36.548Z,60.13
2022-11-20T01:45:36.553Z,59.75
2022-11-20T01:46:36.568Z,59.75
2022-11-20T01:47:36.580Z,59.75
2022-11-20T01:48:36.599Z,59.75
2022-11-20T01:49:36.607Z,59.75
2022-11-20T01:50:36.371Z,59.66
2022-11-20T01:51:36.940Z,59.75
2022-11-20T01:52:36.662Z,59.75
2022-11-20T01:53:36.666Z,59.75
2022-11-20T01:54:36.679Z,59.75
2022-11-20T01:55:36.436Z,59.94
2022-11-20T01:56:36.707Z,59.75
2022-11-20T01:57:36.462Z,59.94
2022-11-20T01:58:36.466Z,59.94
2022-11-20T01:59:36.741Z,59.94
2022-11-20T02:00:36.499Z,59.38
2022-11-20T02:01:36.870Z,59.84
2022-11-20T02:02:36.784Z,59.94
2022-11-20T02:03:36.804Z,59.28
2022-11-20T02:04:36.811Z,59.56
2022-11-20T02:05:36.820Z,59.75
2022-11-20T02:06:36.838Z,59.66
2022-11-20T02:07:36.946Z,59.56
2022-11-20T02:08:36.609Z,59.56
2022-11-20T02:09:36.876Z,59.66
2022-11-20T02:10:36.634Z,59.56
2022-11-20T02:11:36.647Z,59.47
2022-11-20T02:12:36.652Z,59.66
2022-11-20T02:13:36.932Z,59.56
2022-11-20T02:14:36.933Z,59.47
2022-11-20T02:15:36.958Z,59.66
2022-11-20T02:16:36.971Z,59.47
2022-11-20T02:17:36.978Z,59.66
2022-11-20T02:18:36.999Z,59.56
2022-11-20T02:19:37.000Z,59.47
2022-11-20T02:20:36.762Z,59.56
2022-11-20T02:21:37.030Z,59.56
2022-11-20T02:22:36.787Z,59.47
2022-11-20T02:23:37.067Z,59.84
2022-11-20T02:24:36.827Z,59.84
2022-11-20T02:25:37.083Z,59.84
2022-11-20T02:26:36.839Z,59.94
2022-11-20T02:27:37.110Z,59.84
2022-11-20T02:28:36.871Z,59.84
2022-11-20T02:29:36.884Z,59.47
2022-11-20T02:30:37.169Z,59.66
2022-11-20T02:31:37.170Z,59.66
2022-11-20T02:32:37.183Z,59.66
2022-11-20T02:33:36.937Z,59.75
2022-11-20T02:34:36.957Z,59.66
2022-11-20T02:35:36.957Z,59.84
2022-11-20T02:36:37.240Z,59.56
2022-11-20T02:37:37.250Z,59.47
2022-11-20T02:38:37.001Z,59.56
2022-11-20T02:39:37.275Z,59.34
2022-11-20T02:40:37.284Z,59.56
2022-11-20T02:41:37.038Z,59.38
2022-11-20T02:42:37.310Z,59.75
2022-11-20T02:43:37.325Z,59.66
2022-11-20T02:44:37.077Z,59.66
2022-11-20T02:45:37.089Z,59.56
2022-11-20T02:46:37.365Z,59.56
2022-11-20T02:47:37.122Z,59.56
2022-11-20T02:48:37.395Z,59.66
2022-11-20T02:49:37.152Z,59.66
2022-11-20T02:50:37.154Z,59.66
2022-11-20T02:51:37.637Z,59.66
2022-11-20T02:52:37.446Z,59.56
2022-11-20T02:53:37.491Z,59.66
2022-11-20T02:54:37.472Z,59.75
2022-11-20T02:55:37.487Z,59.66
2022-11-20T02:56:37.496Z,59.72
2022-11-20T02:57:37.508Z,59.47
2022-11-20T02:58:37.620Z,59.47
2022-11-20T02:59:37.537Z,59.63
2022-11-20T03:00:37.548Z,59.56
2022-11-20T03:01:37.474Z,59.66
2022-11-20T03:02:37.590Z,59.53
2022-11-20T03:03:37.336Z,59.63
2022-11-20T03:04:37.606Z,59.72
2022-11-20T03:05:37.363Z,59.72
2022-11-20T03:06:37.627Z,59.66
2022-11-20T03:07:37.791Z,59.53
2022-11-20T03:08:37.661Z,59.63
2022-11-20T03:09:37.408Z,59.44
2022-11-20T03:10:37.679Z,59.63
2022-11-20T03:11:37.443Z,59.44
2022-11-20T03:12:37.697Z,59.72
2022-11-20T03:13:37.458Z,59.53
2022-11-20T03:14:37.726Z,59.72
2022-11-20T03:15:37.745Z,59.63
2022-11-20T03:16:37.497Z,59.44
2022-11-20T03:17:37.524Z,59.44
2022-11-20T03:18:37.785Z,59.44
2022-11-20T03:19:37.797Z,59.44
2022-11-20T03:20:37.549Z,59.44
2022-11-20T03:21:37.568Z,59.44
2022-11-20T03:22:37.841Z,59.44
2022-11-20T03:23:37.596Z,59.44
2022-11-20T03:24:37.602Z,59.44
2022-11-20T03:25:37.873Z,59.44
2022-11-20T03:26:37.891Z,59.81
2022-11-20T03:27:37.899Z,59.25
2022-11-20T03:28:37.915Z,59.63
2022-11-20T03:29:37.931Z,59.63
2022-11-20T03:30:37.682Z,59.44
2022-11-20T03:31:37.694Z,59.63
2022-11-20T03:32:37.749Z,59.44
2022-11-20T03:33:37.985Z,59.44
2022-11-20T03:34:37.991Z,59.44
2022-11-20T03:35:38.007Z,59.44
2022-11-20T03:36:38.028Z,59.63
2022-11-20T03:37:37.776Z,59.53
2022-11-20T03:38:37.792Z,59.63
2022-11-20T03:39:38.067Z,59.63
2022-11-20T03:40:38.079Z,59.81
2022-11-20T03:41:38.085Z,59.44
2022-11-20T03:42:37.846Z,59.16
2022-11-20T03:43:38.111Z,59.81
2022-11-20T03:44:38.121Z,59.25
2022-11-20T03:45:38.131Z,59.44
2022-11-20T03:46:38.150Z,59.16
2022-11-20T03:47:38.160Z,59.16
2022-11-20T03:48:38.186Z,59.25
2022-11-20T03:49:38.186Z,59.25
2022-11-20T03:50:37.947Z,59.72
2022-11-20T03:51:38.270Z,59.25
2022-11-20T03:52:38.229Z,59.25
2022-11-20T03:53:37.979Z,59.91
2022-11-20T03:54:38.262Z,59.16
2022-11-20T03:55:38.267Z,59.63
2022-11-20T03:56:38.287Z,59.44
2022-11-20T03:57:38.300Z,59.16
2022-11-20T03:58:38.051Z,59.25
2022-11-20T03:59:38.323Z,59.16
2022-11-20T04:00:38.331Z,59.44
2022-11-20T04:01:38.664Z,59.16
2022-11-20T04:02:38.358Z,59.16
2022-11-20T04:03:38.114Z,59.25
2022-11-20T04:04:38.383Z,59.34
2022-11-20T04:05:38.393Z,59.06
2022-11-20T04:06:38.416Z,59.06
2022-11-20T04:07:38.625Z,59.34
2022-11-20T04:08:38.437Z,59.34
2022-11-20T04:09:38.448Z,59.16
2022-11-20T04:10:38.463Z,59.06
2022-11-20T04:11:38.480Z,59.34
2022-11-20T04:12:38.492Z,59.91
2022-11-20T04:13:38.500Z,59.25
2022-11-20T04:14:38.256Z,59.16
2022-11-20T04:15:41.036Z,59.16
2022-11-20T04:16:38.549Z,59.25
2022-11-20T04:17:38.294Z,59.25
2022-11-20T04:18:38.309Z,59.25
2022-11-20T04:19:38.323Z,59.16
2022-11-20T04:20:38.598Z,59.16
2022-11-20T04:21:38.618Z,59.25
2022-11-20T04:22:38.624Z,59.34
2022-11-20T04:23:38.634Z,59.25
2022-11-20T04:24:38.651Z,59.34
2022-11-20T04:25:38.405Z,59.25
2022-11-20T04:26:38.671Z,59.25
2022-11-20T04:27:38.684Z,59.34
2022-11-20T04:28:38.698Z,59.25
2022-11-20T04:29:38.717Z,59.44
2022-11-20T04:30:38.723Z,59.25
2022-11-20T04:31:38.483Z,59.44
2022-11-20T04:32:38.483Z,59.34
2022-11-20T04:33:38.770Z,59.44
2022-11-20T04:34:38.775Z,59.44
2022-11-20T04:35:38.537Z,59.44
2022-11-20T04:36:38.820Z,59.53
2022-11-20T04:37:38.821Z,59.16
2022-11-20T04:38:38.566Z,59.44
2022-11-20T04:39:38.583Z,59.44
2022-11-20T04:40:38.591Z,59.63
2022-11-20T04:41:38.870Z,59.53
2022-11-20T04:42:38.877Z,59.34
2022-11-20T04:43:38.632Z,59.34
2022-11-20T04:44:38.907Z,59.44
2022-11-20T04:45:38.660Z,59.44
2022-11-20T04:46:38.668Z,59.34
2022-11-20T04:47:38.684Z,58.97
2022-11-20T04:48:38.695Z,58.97
2022-11-20T04:49:39.087Z,59.16
2022-11-20T04:50:38.978Z,59.16
2022-11-20T04:51:39.294Z,59.34
2022-11-20T04:52:38.752Z,59.34
2022-11-20T04:53:38.762Z,59.25
2022-11-20T04:54:38.776Z,59.25
2022-11-20T04:55:38.785Z,59.34
2022-11-20T04:56:39.054Z,59.25
2022-11-20T04:57:39.075Z,59.44
2022-11-20T04:58:39.085Z,59.44
2022-11-20T04:59:39.123Z,59.06
2022-11-20T05:00:38.848Z,59.16
2022-11-20T05:01:39.001Z,59.16
2022-11-20T05:02:39.138Z,59.34
2022-11-20T05:03:44.552Z,59.25
2022-11-20T05:04:38.901Z,59.34
2022-11-20T05:05:38.966Z,59.25
2022-11-20T05:06:39.187Z,59.25
2022-11-20T05:07:39.278Z,59.06
2022-11-20T05:08:39.207Z,59.16
2022-11-20T05:09:39.225Z,59.34
2022-11-20T05:10:39.244Z,59.34
2022-11-20T05:11:39.251Z,59.25
2022-11-20T05:12:40.158Z,59.34
2022-11-20T05:13:39.473Z,59.06
2022-11-20T05:14:39.303Z,59.25
2022-11-20T05:15:39.410Z,59.25
2022-11-20T05:16:39.320Z,59.34
2022-11-20T05:17:39.330Z,59.25
2022-11-20T05:18:39.338Z,59.34
2022-11-20T05:19:39.350Z,59.16
2022-11-20T05:20:39.366Z,59.25
2022-11-20T05:21:39.380Z,59.25
2022-11-20T05:22:39.399Z,59.34
2022-11-20T05:23:39.406Z,59.53
2022-11-20T05:24:39.164Z,59.34
2022-11-20T05:25:39.176Z,59.53
2022-11-20T05:26:39.187Z,59.44
2022-11-20T05:27:39.456Z,59.63
2022-11-20T05:28:39.214Z,59.34
2022-11-20T05:29:39.486Z,59.25
2022-11-20T05:30:39.498Z,59.25
2022-11-20T05:31:39.509Z,59.25
2022-11-20T05:32:39.263Z,59.34
2022-11-20T05:33:39.530Z,59.25
2022-11-20T05:34:39.297Z,59.72
2022-11-20T05:35:39.300Z,59.44
2022-11-20T05:36:39.580Z,59.53
2022-11-20T05:37:39.587Z,59.44
2022-11-20T05:38:39.605Z,59.63
2022-11-20T05:39:39.616Z,59.34
2022-11-20T05:40:39.630Z,59.63
2022-11-20T05:41:39.378Z,59.63
2022-11-20T05:42:39.396Z,59.53
2022-11-20T05:43:39.410Z,59.63
2022-11-20T05:44:39.683Z,59.53
2022-11-20T05:45:39.697Z,59.63
2022-11-20T05:46:39.456Z,59.16
2022-11-20T05:47:39.468Z,59.44
2022-11-20T05:48:39.720Z,59.44
2022-11-20T05:49:39.738Z,59.44
2022-11-20T05:50:39.753Z,59.72
2022-11-20T05:51:39.604Z,59.81
2022-11-20T05:52:39.517Z,59.63
2022-11-20T05:53:43.812Z,59.63
2022-11-20T05:54:39.546Z,59.72
2022-11-20T05:55:39.818Z,59.44
2022-11-20T05:56:39.832Z,59.44
2022-11-20T05:57:39.847Z,59.63
2022-11-20T05:58:39.864Z,59.63
2022-11-20T05:59:39.873Z,59.63
2022-11-20T06:00:39.633Z,59.63
2022-11-20T06:01:39.633Z,59.63
2022-11-20T06:02:40.134Z,59.25
2022-11-20T06:03:39.671Z,59.25
2022-11-20T06:04:39.927Z,59.81
2022-11-20T06:05:39.952Z,59.91
2022-11-20T06:06:39.709Z,59.63
2022-11-20T06:07:39.852Z,59.91
2022-11-20T06:08:40.083Z,59.63
2022-11-20T06:09:40.141Z,59.72
2022-11-20T06:10:40.159Z,59.81
2022-11-20T06:11:40.126Z,59.81
2022-11-20T06:12:40.122Z,59.91
2022-11-20T06:13:44.204Z,60.19
2022-11-20T06:14:40.166Z,59.91
2022-11-20T06:15:39.816Z,60.1
2022-11-20T06:16:39.824Z,60.38
2022-11-20T06:17:39.836Z,59.91
2022-11-20T06:18:40.167Z,60
2022-11-20T06:19:40.177Z,60
2022-11-20T06:20:44.465Z,59.91
2022-11-20T06:21:40.164Z,60
2022-11-20T06:22:40.164Z,59.91
2022-11-20T06:23:39.920Z,59.91
2022-11-20T06:24:40.189Z,59.91
2022-11-20T06:25:40.202Z,60
2022-11-20T06:26:40.211Z,59.91
2022-11-20T06:27:40.222Z,60.29
2022-11-20T06:28:39.984Z,60.1
2022-11-20T06:29:40.250Z,60.1
2022-11-20T06:30:40.265Z,60.19
2022-11-20T06:31:40.281Z,60.29
2022-11-20T06:32:40.289Z,60.29
2022-11-20T06:33:40.190Z,60.19
2022-11-20T06:34:40.320Z,60.29
2022-11-20T06:35:40.330Z,60.38
2022-11-20T06:36:40.339Z,60.38
2022-11-20T06:37:40.193Z,60.29
2022-11-20T06:38:40.377Z,60.38
2022-11-20T06:39:40.391Z,60.19
2022-11-20T06:40:40.188Z,60.38
2022-11-20T06:41:40.407Z,60.19
2022-11-20T06:42:40.416Z,60.19
2022-11-20T06:43:40.224Z,60.29
2022-11-20T06:44:40.467Z,60.19
2022-11-20T06:45:40.459Z,60.38
2022-11-20T06:46:40.219Z,60.38
2022-11-20T06:47:40.226Z,60.48
2022-11-20T06:48:40.239Z,60.38
2022-11-20T06:49:40.514Z,60.48
2022-11-20T06:50:40.521Z,60.29
2022-11-20T06:51:40.839Z,60.29
2022-11-20T06:52:45.943Z,60.58
2022-11-20T06:53:40.560Z,60.48
2022-11-20T06:54:40.572Z,60.58
2022-11-20T06:55:40.346Z,60.29
2022-11-20T06:56:40.601Z,60.38
2022-11-20T06:57:40.360Z,60.58
2022-11-20T06:58:40.632Z,60.58
2022-11-20T06:59:40.636Z,60.58
2022-11-20T07:00:40.777Z,60.77
2022-11-20T07:01:40.736Z,60.58
2022-11-20T07:02:40.682Z,60.67
2022-11-20T07:03:40.694Z,60.38
2022-11-20T07:04:40.496Z,60.48
2022-11-20T07:05:40.713Z,60.48
2022-11-20T07:06:40.734Z,60.48
2022-11-20T07:07:40.834Z,60.48
2022-11-20T07:08:40.497Z,60.48
2022-11-20T07:09:40.512Z,60.96
2022-11-20T07:10:40.518Z,60.96
2022-11-20T07:11:40.801Z,60.77
2022-11-20T07:12:40.816Z,60.77
2022-11-20T07:13:40.826Z,60.77
2022-11-20T07:14:40.837Z,60.77
2022-11-20T07:15:40.586Z,60.96
2022-11-20T07:16:40.871Z,60.86
2022-11-20T07:17:40.875Z,61.05
2022-11-20T07:18:40.624Z,60.96
2022-11-20T07:19:40.898Z,61.15
2022-11-20T07:20:40.911Z,61.15
2022-11-20T07:21:40.920Z,61.05
2022-11-20T07:22:40.680Z,61.05
2022-11-20T07:23:40.958Z,60.67
2022-11-20T07:24:47.009Z,60.96
2022-11-20T07:25:40.977Z,60.86
2022-11-20T07:26:40.748Z,60.96
2022-11-20T07:27:41.003Z,60.67
2022-11-20T07:28:40.760Z,61.05
2022-11-20T07:29:40.781Z,60.77
2022-11-20T07:30:41.046Z,61.05
2022-11-20T07:31:41.060Z,60.67
2022-11-20T07:32:41.070Z,61.05
2022-11-20T07:33:41.082Z,61.24
2022-11-20T07:34:41.100Z,61.43
2022-11-20T07:35:41.112Z,61.43
2022-11-20T07:36:41.123Z,61.15
2022-11-20T07:37:41.143Z,61.05
2022-11-20T07:38:40.887Z,60.86
2022-11-20T07:39:41.164Z,61.24
2022-11-20T07:40:40.913Z,61.43
2022-11-20T07:41:41.181Z,61.33
2022-11-20T07:42:41.206Z,61.24
2022-11-20T07:43:43.837Z,60.77
2022-11-20T07:44:41.222Z,61.24
2022-11-20T07:45:40.982Z,61.05
2022-11-20T07:46:41.251Z,61.24
2022-11-20T07:47:41.294Z,61.15
2022-11-20T07:48:41.018Z,60.96
2022-11-20T07:49:41.295Z,60.96
2022-11-20T07:50:41.301Z,61.15
2022-11-20T07:51:41.106Z,60.96
2022-11-20T07:52:41.070Z,61.05
2022-11-20T07:53:41.088Z,60.96
2022-11-20T07:54:41.096Z,60.77
2022-11-20T07:55:41.366Z,60.86
2022-11-20T07:56:41.384Z,60.77
2022-11-20T07:57:41.405Z,60.77
2022-11-20T07:58:41.149Z,60.77
2022-11-20T07:59:41.160Z,60.96
2022-11-20T08:00:41.506Z,60.86
2022-11-20T08:01:41.187Z,60.77
2022-11-20T08:02:41.200Z,60.77
2022-11-20T08:03:41.481Z,60.77
2022-11-20T08:04:41.483Z,60.86
2022-11-20T08:05:41.244Z,61.15
2022-11-20T08:06:41.525Z,61.15
2022-11-20T08:07:41.751Z,61.24
2022-11-20T08:08:45.097Z,61.24
2022-11-20T08:09:41.557Z,61.24
2022-11-20T08:10:41.309Z,61.15
2022-11-20T08:11:41.584Z,61.24
2022-11-20T08:12:41.339Z,61.24
2022-11-20T08:13:41.610Z,61.24
2022-11-20T08:14:41.355Z,61.33
2022-11-20T08:15:41.639Z,61.33
2022-11-20T08:16:41.643Z,61.43
2022-11-20T08:17:41.676Z,61.46
2022-11-20T08:18:41.683Z,61.52
2022-11-20T08:19:41.685Z,61.46
2022-11-20T08:20:41.701Z,61.46
2022-11-20T08:21:41.715Z,61.55
2022-11-20T08:22:41.724Z,61.55
2022-11-20T08:23:41.736Z,61.46
2022-11-20T08:24:41.486Z,61.43
2022-11-20T08:25:41.507Z,61.43
2022-11-20T08:26:41.524Z,61.43
2022-11-20T08:27:41.530Z,61.43
2022-11-20T08:28:41.799Z,61.65
2022-11-20T08:29:41.560Z,61.27
2022-11-20T08:30:41.826Z,61.36
2022-11-20T08:31:41.886Z,61.65
2022-11-20T08:32:41.855Z,61.55
2022-11-20T08:33:41.614Z,61.74
2022-11-20T08:34:41.882Z,61.74
2022-11-20T08:35:41.895Z,61.36
2022-11-20T08:36:41.906Z,61.93
2022-11-20T08:37:41.919Z,61.93
2022-11-20T08:38:41.934Z,61.93
2022-11-20T08:39:41.689Z,61.83
2022-11-20T08:40:41.958Z,61.74
2022-11-20T08:41:41.715Z,61.74
2022-11-20T08:42:41.988Z,61.74
2022-11-20T08:43:41.997Z,61.93
2022-11-20T08:44:41.750Z,62.02
2022-11-20T08:45:42.025Z,62.12
2022-11-20T08:46:41.788Z,62.31
2022-11-20T08:47:42.061Z,62.4
2022-11-20T08:48:42.070Z,62.4
2022-11-20T08:49:42.074Z,62.4
2022-11-20T08:50:42.091Z,61.93
2022-11-20T08:51:42.310Z,62.21
2022-11-20T08:52:42.483Z,62.21
2022-11-20T08:53:42.130Z,62.21
2022-11-20T08:54:42.156Z,62.21
2022-11-20T08:55:42.160Z,62.21
2022-11-20T08:56:42.179Z,62.31
2022-11-20T08:57:44.547Z,62.5
2022-11-20T08:59:31.577Z,62.5
2022-11-20T09:00:14.361Z,62.31
2022-11-20T09:01:14.087Z,62.4
2022-11-20T09:02:14.123Z,62.31
2022-11-20T09:03:13.888Z,62.31
2022-11-20T09:04:13.898Z,62.31
2022-11-20T09:05:14.170Z,62.21
2022-11-20T09:06:14.187Z,62.31
2022-11-20T09:07:14.024Z,62.31
2022-11-20T09:08:13.949Z,62.31
2022-11-20T09:09:14.226Z,62.31
2022-11-20T09:10:29.982Z,62.4
2022-11-20T09:11:14.248Z,62.21
2022-11-20T09:12:14.266Z,62.69
2022-11-20T09:13:14.277Z,62.4
2022-11-20T09:14:14.379Z,62.5
2022-11-20T09:15:14.039Z,62.4
2022-11-20T09:16:14.318Z,62.4
2022-11-20T09:17:14.340Z,62.5
2022-11-20T09:18:14.345Z,62.5
2022-11-20T09:19:44.419Z,63.16
2022-11-20T09:20:14.371Z,63.26
2022-11-20T09:21:14.514Z,62.97
2022-11-20T09:22:14.398Z,63.16
2022-11-20T09:23:14.155Z,63.07
2022-11-20T09:24:14.168Z,63.07
2022-11-20T09:25:14.443Z,62.97
2022-11-20T09:26:14.448Z,63.16
2022-11-20T09:27:14.201Z,63.16
2022-11-20T09:28:14.222Z,62.88
2022-11-20T09:29:14.498Z,62.69
2022-11-20T09:30:14.509Z,63.35
2022-11-20T09:31:14.260Z,63.16
2022-11-20T09:32:14.542Z,63.16
2022-11-20T09:33:14.544Z,63.16
2022-11-20T09:34:14.295Z,62.97
2022-11-20T09:35:14.649Z,62.97
2022-11-20T09:36:14.585Z,63.07
2022-11-20T09:37:14.333Z,63.16
2022-11-20T09:38:14.353Z,63.26
2022-11-20T09:39:14.626Z,63.07
2022-11-20T09:40:14.382Z,63.07
2022-11-20T09:41:14.656Z,63.16
2022-11-20T09:42:14.668Z,63.01
2022-11-20T09:43:14.679Z,63.35
2022-11-20T09:44:14.693Z,63.45
2022-11-20T09:45:14.450Z,63.35
2022-11-20T09:46:14.463Z,63.54
2022-11-20T09:47:14.729Z,63.16
2022-11-20T09:48:14.751Z,63.64
2022-11-20T09:49:14.766Z,63.45
2022-11-20T09:50:14.780Z,63.45
2022-11-20T09:51:14.788Z,63.26
2022-11-20T09:52:15.004Z,63.35
2022-11-20T09:53:14.821Z,63.45
2022-11-20T09:54:14.831Z,63.26
2022-11-20T09:55:14.942Z,63.73
2022-11-20T09:56:18.150Z,63.54
2022-11-20T09:57:14.866Z,63.57
2022-11-20T09:58:14.621Z,63.45
2022-11-20T09:59:14.896Z,63.67
2022-11-20T10:00:14.918Z,63.67
2022-11-20T10:01:15.117Z,63.85
2022-11-20T10:02:14.675Z,63.57
2022-11-20T10:03:14.950Z,63.57
2022-11-20T10:04:14.961Z,63.48
2022-11-20T10:05:14.979Z,63.57
2022-11-20T10:06:14.992Z,63.67
2022-11-20T10:07:44.795Z,63.39
2022-11-20T10:08:14.926Z,63.39
2022-11-20T10:09:15.025Z,63.48
2022-11-20T10:10:15.053Z,63.67
2022-11-20T10:11:15.055Z,63.85
2022-11-20T10:12:15.071Z,63.54
2022-11-20T10:13:15.084Z,63.54
2022-11-20T10:14:15.101Z,63.92
2022-11-20T10:15:15.111Z,63.92
2022-11-20T10:16:15.325Z,63.92
2022-11-20T10:17:15.079Z,63.85
2022-11-20T10:18:15.295Z,63.76
2022-11-20T10:19:15.366Z,63.76
2022-11-20T10:20:15.385Z,63.85
2022-11-20T10:21:15.088Z,64.14
2022-11-20T10:22:15.302Z,63.85
2022-11-20T10:23:15.074Z,64.14
2022-11-20T10:24:15.285Z,64.23
2022-11-20T10:25:15.352Z,63.95
2022-11-20T10:26:15.096Z,64.33
2022-11-20T10:27:15.319Z,64.23
2022-11-20T10:28:15.332Z,64.23
2022-11-20T10:29:15.358Z,64.14
2022-11-20T10:30:15.113Z,64.14
2022-11-20T10:31:15.326Z,64.23
2022-11-20T10:32:15.335Z,64.04
2022-11-20T10:33:15.352Z,64.23
2022-11-20T10:34:21.164Z,64.23
2022-11-20T10:35:15.377Z,64.14
2022-11-20T10:36:15.133Z,64.23
2022-11-20T10:37:15.402Z,64.14
2022-11-20T10:38:15.416Z,64.14
2022-11-20T10:39:15.431Z,64.14
2022-11-20T10:40:15.441Z,64.14
2022-11-20T10:41:15.201Z,64.14
2022-11-20T10:42:15.219Z,64.23
2022-11-20T10:43:15.488Z,64.23
2022-11-20T10:44:15.491Z,64.33
2022-11-20T10:45:15.511Z,64.23
2022-11-20T10:46:15.525Z,64.14
2022-11-20T10:47:15.541Z,64.23
2022-11-20T10:48:15.549Z,64.23
2022-11-20T10:49:15.308Z,64.14
2022-11-20T10:50:22.387Z,64.33
2022-11-20T10:51:15.339Z,64.23
2022-11-20T10:52:15.704Z,64.23
2022-11-20T10:53:15.642Z,64.23
2022-11-20T10:54:15.371Z,64.33
2022-11-20T10:55:15.644Z,63.95
2022-11-20T10:56:15.651Z,64.14
2022-11-20T10:57:15.678Z,63.95
2022-11-20T10:58:15.687Z,63.95
2022-11-20T10:59:15.702Z,63.95
2022-11-20T11:00:15.780Z,63.95
2022-11-20T11:01:15.914Z,63.95
2022-11-20T11:02:15.486Z,64.23
2022-11-20T11:03:15.757Z,64.14
2022-11-20T11:04:15.762Z,64.52
2022-11-20T11:05:17.187Z,64.61
2022-11-20T11:06:15.535Z,64.61
2022-11-20T11:07:15.939Z,64.61
2022-11-20T11:08:15.575Z,64.61
2022-11-20T11:09:15.838Z,64.42
2022-11-20T11:10:15.670Z,64.81
2022-11-20T11:11:15.861Z,64.61
2022-11-20T11:12:15.886Z,64.71
2022-11-20T11:13:15.880Z,64.52
2022-11-20T11:14:15.908Z,64.81
2022-11-20T11:15:15.919Z,64.71
2022-11-20T11:16:15.924Z,64.71
2022-11-20T11:17:15.939Z,64.52
2022-11-20T11:18:16.066Z,64.71
2022-11-20T11:19:15.960Z,64.61
2022-11-20T11:20:15.985Z,64.81
2022-11-20T11:21:16.042Z,65.09
2022-11-20T11:22:16.007Z,64.81
2022-11-20T11:23:16.019Z,64.81
2022-11-20T11:24:43.607Z,64.81
2022-11-20T11:25:16.054Z,64.9
2022-11-20T11:26:16.065Z,64.9
2022-11-20T11:27:19.561Z,64.81
2022-11-20T11:28:16.092Z,65
2022-11-20T11:29:16.109Z,64.61
2022-11-20T11:30:16.191Z,64.81
2022-11-20T11:31:16.134Z,64.71
2022-11-20T11:32:16.143Z,64.81
2022-11-20T11:33:15.900Z,64.81
2022-11-20T11:34:16.174Z,64.81
2022-11-20T11:35:16.178Z,64.9
2022-11-20T11:36:16.201Z,64.9
2022-11-20T11:37:16.208Z,65.09
2022-11-20T11:38:16.229Z,65.28
2022-11-20T11:39:16.239Z,65.09
2022-11-20T11:40:26.481Z,65.19
2022-11-20T11:41:16.020Z,65.28
2022-11-20T11:42:16.288Z,65.19
2022-11-20T11:43:16.299Z,64.9
2022-11-20T11:44:16.052Z,65.19
2022-11-20T11:45:16.064Z,64.9
2022-11-20T11:46:16.342Z,65.28
2022-11-20T11:47:16.353Z,65.09
2022-11-20T11:48:16.104Z,65.37
2022-11-20T11:49:16.126Z,64.9
2022-11-20T11:50:16.392Z,65.31
2022-11-20T11:51:16.406Z,65.12
2022-11-20T11:52:16.371Z,65.37
2022-11-20T11:53:16.444Z,65.47
2022-11-20T11:54:16.452Z,65.56
2022-11-20T11:55:16.469Z,65.5
2022-11-20T11:56:16.221Z,65.22
2022-11-20T11:57:16.488Z,65.03
2022-11-20T11:58:16.501Z,65.59
2022-11-20T11:59:16.526Z,65.47
2022-11-20T12:00:16.532Z,65.5
2022-11-20T12:01:16.543Z,65.22
2022-11-20T12:02:16.702Z,65.59
2022-11-20T12:03:16.312Z,65.41
2022-11-20T12:04:16.333Z,65.41
2022-11-20T12:05:16.614Z,65.5
2022-11-20T12:06:16.618Z,65.31
2022-11-20T12:07:47.804Z,65.59
2022-11-20T12:08:16.699Z,65.69
2022-11-20T12:09:16.662Z,65.5
2022-11-20T12:10:16.672Z,65.41
2022-11-20T12:11:16.688Z,65.41
2022-11-20T12:12:16.693Z,65.5
2022-11-20T12:13:16.716Z,65.69
2022-11-20T12:14:16.469Z,65.41
2022-11-20T12:15:16.492Z,65.5
2022-11-20T12:16:16.747Z,65.5
2022-11-20T12:17:16.769Z,65.59
2022-11-20T12:18:16.777Z,65.41
2022-11-20T12:19:16.792Z,65.41
2022-11-20T12:20:16.807Z,65.5
2022-11-20T12:21:16.853Z,65.22
2022-11-20T12:22:16.835Z,65.41
2022-11-20T12:23:16.589Z,65.31
2022-11-20T12:24:16.863Z,65.5
2022-11-20T12:25:16.877Z,65.5
2022-11-20T12:26:17.088Z,65.22
2022-11-20T12:27:16.665Z,65.41
2022-11-20T12:28:16.917Z,65.22
2022-11-20T12:29:16.675Z,65.22
2022-11-20T12:30:16.944Z,65.31
2022-11-20T12:31:17.027Z,65.22
2022-11-20T12:32:16.716Z,65.41
2022-11-20T12:33:16.730Z,65.22
2022-11-20T12:34:17.005Z,65.69
2022-11-20T12:35:16.757Z,65.59
2022-11-20T12:36:17.031Z,65.97
2022-11-20T12:37:16.786Z,65.69
2022-11-20T12:38:17.054Z,65.69
2022-11-20T12:39:17.076Z,65.97
2022-11-20T12:40:16.832Z,65.69
2022-11-20T12:41:17.115Z,65.97
2022-11-20T12:42:17.119Z,65.97
2022-11-20T12:43:17.127Z,65.59
2022-11-20T12:44:16.882Z,65.41
2022-11-20T12:45:17.178Z,65.88
2022-11-20T12:46:17.163Z,65.69
2022-11-20T12:47:16.930Z,65.59
2022-11-20T12:48:17.193Z,65.69
2022-11-20T12:49:16.950Z,65.22
2022-11-20T12:50:17.228Z,65.41
2022-11-20T12:51:18.592Z,65.12
2022-11-20T12:52:17.302Z,65.22
2022-11-20T12:53:17.005Z,65.31
2022-11-20T12:54:17.017Z,65.12
2022-11-20T12:55:17.030Z,65.12